createdAt,value
2022-09-24T00:01:26.252Z,18.33
2022-09-24T00:04:00.168Z,18.32
2022-09-24T00:06:29.051Z,18.32
2022-09-24T00:08:57.115Z,18.30
2022-09-24T00:11:25.747Z,18.28
2022-09-24T00:13:53.099Z,18.26
2022-09-24T00:16:21.780Z,18.25
2022-09-24T00:18:48.954Z,18.24
2022-09-24T00:21:21.704Z,18.22
2022-09-24T00:23:53.426Z,18.23
2022-09-24T00:26:38.776Z,18.22
2022-09-24T00:29:05.795Z,18.22
2022-09-24T00:31:32.950Z,18.23
2022-09-24T00:34:01.571Z,18.22
2022-09-24T00:36:28.729Z,18.23
2022-09-24T00:38:57.251Z,18.23
2022-09-24T00:41:28.290Z,18.23
2022-09-24T00:43:55.514Z,18.23
2022-09-24T00:46:26.900Z,18.21
2022-09-24T00:48:58.571Z,18.21
2022-09-24T00:51:26.864Z,18.20
2022-09-24T00:53:57.133Z,18.19
2022-09-24T00:56:24.035Z,18.18
2022-09-24T00:58:53.479Z,18.17
2022-09-24T01:01:22.884Z,18.15
2022-09-24T01:03:51.294Z,18.14
2022-09-24T01:06:18.076Z,18.13
2022-09-24T01:08:45.793Z,18.12
2022-09-24T01:11:30.318Z,18.11
2022-09-24T01:14:16.155Z,18.09
2022-09-24T01:16:53.068Z,18.10
2022-09-24T01:19:22.622Z,18.08
2022-09-24T01:21:56.356Z,18.08
2022-09-24T01:24:41.326Z,18.07
2022-09-24T01:27:16.609Z,18.05
2022-09-24T01:29:53.401Z,18.05
2022-09-24T01:32:28.884Z,18.04
2022-09-24T01:35:07.535Z,18.03
2022-09-24T01:37:35.003Z,18.03
2022-09-24T01:40:03.875Z,18.03
2022-09-24T01:42:31.008Z,18.02
2022-09-24T01:44:58.208Z,18.01
2022-09-24T01:47:39.701Z,17.99
2022-09-24T01:50:11.426Z,17.98
2022-09-24T01:52:46.005Z,17.94
2022-09-24T01:55:15.448Z,17.93
2022-09-24T01:57:46.524Z,17.92
2022-09-24T02:00:20.959Z,17.88
2022-09-24T02:02:57.876Z,17.87
2022-09-24T02:05:36.850Z,17.86
2022-09-24T02:08:09.861Z,17.84
2022-09-24T02:10:42.830Z,17.84
2022-09-24T02:13:12.791Z,17.82
2022-09-24T02:15:42.769Z,17.82
2022-09-24T02:18:12.684Z,17.80
2022-09-24T02:20:41.661Z,17.80
2022-09-24T02:23:11.731Z,17.80
2022-09-24T02:25:53.228Z,17.76
2022-09-24T02:28:20.018Z,17.74
2022-09-24T02:30:50.980Z,17.70
2022-09-24T02:33:37.205Z,17.69
2022-09-24T02:36:04.040Z,17.65
2022-09-24T02:38:30.830Z,17.64
2022-09-24T02:40:58.071Z,17.62
2022-09-24T02:43:25.960Z,17.61
2022-09-24T02:45:52.683Z,17.59
2022-09-24T02:48:19.610Z,17.59
2022-09-24T02:50:46.396Z,17.57
2022-09-24T02:53:13.222Z,17.55
2022-09-24T02:55:39.979Z,17.53
2022-09-24T02:58:07.187Z,17.52
2022-09-24T03:00:33.996Z,17.49
2022-09-24T03:03:00.845Z,17.48
2022-09-24T03:05:27.653Z,17.46
2022-09-24T03:07:55.004Z,17.45
2022-09-24T03:10:21.718Z,17.42
2022-09-24T03:12:48.477Z,17.38
2022-09-24T03:15:15.205Z,17.36
2022-09-24T03:17:41.906Z,17.35
2022-09-24T03:20:08.830Z,17.34
2022-09-24T03:22:35.564Z,17.32
2022-09-24T03:25:03.137Z,17.30
2022-09-24T03:27:29.867Z,17.27
2022-09-24T03:30:15.184Z,17.26
2022-09-24T03:32:41.917Z,17.22
2022-09-24T03:35:08.886Z,17.22
2022-09-24T03:37:38.644Z,17.21
2022-09-24T03:40:07.754Z,17.20
2022-09-24T03:42:35.064Z,17.19
2022-09-24T03:45:01.843Z,17.18
2022-09-24T03:47:31.208Z,17.16
2022-09-24T03:49:58.024Z,17.15
2022-09-24T03:52:25.886Z,17.12
2022-09-24T03:54:52.574Z,17.12
2022-09-24T03:57:19.255Z,17.09
2022-09-24T03:59:47.156Z,17.07
2022-09-24T04:02:14.069Z,17.05
2022-09-24T04:04:40.778Z,17.03
2022-09-24T04:07:07.485Z,17.00
2022-09-24T04:09:34.212Z,16.98
2022-09-24T04:12:01.238Z,16.97
2022-09-24T04:14:27.958Z,16.95
2022-09-24T04:16:54.664Z,16.96
2022-09-24T04:19:21.345Z,16.95
2022-09-24T04:21:48.249Z,16.95
2022-09-24T04:24:14.957Z,16.93
2022-09-24T04:26:41.648Z,16.92
2022-09-24T04:29:08.561Z,16.93
2022-09-24T04:31:35.295Z,16.91
2022-09-24T04:34:02.101Z,16.89
2022-09-24T04:36:28.824Z,16.89
2022-09-24T04:38:57.111Z,16.88
2022-09-24T04:41:23.812Z,16.88
2022-09-24T04:43:51.362Z,16.87
2022-09-24T04:46:19.120Z,16.85
2022-09-24T04:48:45.931Z,16.83
2022-09-24T04:51:12.641Z,16.83
2022-09-24T04:53:39.365Z,16.83
2022-09-24T04:56:11.181Z,16.84
2022-09-24T04:58:38.838Z,16.83
2022-09-24T05:01:05.614Z,16.83
2022-09-24T05:03:33.179Z,16.84
2022-09-24T05:06:00.313Z,16.83
2022-09-24T05:08:27.032Z,16.83
2022-09-24T05:10:54.104Z,16.83
2022-09-24T05:13:21.555Z,16.85
2022-09-24T05:15:48.339Z,16.84
2022-09-24T05:18:15.078Z,16.85
2022-09-24T05:20:41.997Z,16.85
2022-09-24T05:23:08.688Z,16.85
2022-09-24T05:25:55.383Z,16.84
2022-09-24T05:28:22.417Z,16.83
2022-09-24T05:30:49.702Z,16.85
2022-09-24T05:33:16.633Z,16.84
2022-09-24T05:35:43.325Z,16.86
2022-09-24T05:38:10.021Z,16.85
2022-09-24T05:40:48.824Z,16.84
2022-09-24T05:43:16.562Z,16.84
2022-09-24T05:45:45.270Z,16.82
2022-09-24T05:48:12.168Z,16.84
2022-09-24T05:50:38.887Z,16.83
2022-09-24T05:53:05.901Z,16.85
2022-09-24T05:55:32.929Z,16.85
2022-09-24T05:58:04.218Z,16.85
2022-09-24T06:00:30.914Z,16.83
2022-09-24T06:03:21.910Z,16.82
2022-09-24T06:05:49.916Z,16.81
2022-09-24T06:08:17.592Z,16.82
2022-09-24T06:10:45.732Z,16.81
2022-09-24T06:13:14.102Z,16.83
2022-09-24T06:15:42.136Z,16.86
2022-09-24T06:18:09.581Z,16.87
2022-09-24T06:20:36.411Z,16.90
2022-09-24T06:23:03.153Z,16.93
2022-09-24T06:25:31.028Z,16.92
2022-09-24T06:28:02.238Z,16.93
2022-09-24T06:30:30.645Z,16.92
2022-09-24T06:33:03.145Z,16.93
2022-09-24T06:35:29.840Z,16.93
2022-09-24T06:37:56.555Z,16.93
2022-09-24T06:40:25.974Z,16.94
2022-09-24T06:42:53.202Z,16.94
2022-09-24T06:45:20.735Z,16.96
2022-09-24T06:48:01.380Z,17.00
2022-09-24T06:50:29.425Z,17.06
2022-09-24T06:52:56.786Z,17.11
2022-09-24T06:55:23.509Z,17.14
2022-09-24T06:57:50.824Z,17.18
2022-09-24T07:00:17.573Z,17.21
2022-09-24T07:02:44.294Z,17.24
2022-09-24T07:05:11.019Z,17.27
2022-09-24T07:07:37.705Z,17.29
2022-09-24T07:10:06.463Z,17.31
2022-09-24T07:12:34.972Z,17.32
2022-09-24T07:15:01.711Z,17.35
2022-09-24T07:17:33.793Z,17.38
2022-09-24T07:20:00.879Z,17.39
2022-09-24T07:22:27.613Z,17.43
2022-09-24T07:24:54.327Z,17.45
2022-09-24T07:27:21.292Z,17.48
2022-09-24T07:29:48.737Z,17.48
2022-09-24T07:32:16.329Z,17.48
2022-09-24T07:34:43.028Z,17.47
2022-09-24T07:37:09.708Z,17.49
2022-09-24T07:39:36.426Z,17.52
2022-09-24T07:42:03.123Z,17.57
2022-09-24T07:44:29.804Z,17.61
2022-09-24T07:46:56.576Z,17.62
2022-09-24T07:49:23.370Z,17.65
2022-09-24T07:51:50.117Z,17.66
2022-09-24T07:54:17.434Z,17.71
2022-09-24T07:56:44.335Z,17.73
2022-09-24T07:59:11.141Z,17.77
2022-09-24T08:01:37.926Z,17.82
2022-09-24T08:04:04.800Z,17.82
2022-09-24T08:06:38.322Z,17.87
2022-09-24T08:09:06.905Z,17.90
2022-09-24T08:11:33.797Z,17.95
2022-09-24T08:14:00.649Z,17.94
2022-09-24T08:16:27.530Z,17.93
2022-09-24T08:18:54.356Z,17.95
2022-09-24T08:21:21.915Z,17.95
2022-09-24T08:23:48.614Z,17.98
2022-09-24T08:26:15.499Z,18.02
2022-09-24T08:28:42.216Z,18.04
2022-09-24T08:31:11.719Z,18.09
2022-09-24T08:33:38.622Z,18.10
2022-09-24T08:36:09.506Z,18.13
2022-09-24T08:38:36.693Z,18.17
2022-09-24T08:41:32.676Z,18.18
2022-09-24T08:44:15.613Z,18.19
2022-09-24T08:47:05.914Z,18.20
2022-09-24T08:49:40.828Z,18.21
2022-09-24T08:52:29.385Z,18.23
2022-09-24T08:54:56.942Z,18.26
2022-09-24T08:57:23.786Z,18.28
2022-09-24T08:59:53.853Z,18.33
2022-09-24T09:02:34.271Z,18.33
2022-09-24T09:05:18.053Z,18.36
2022-09-24T09:08:27.320Z,18.38
2022-09-24T09:10:58.587Z,18.41
2022-09-24T09:13:33.095Z,18.47
2022-09-24T09:16:03.418Z,18.52
2022-09-24T09:18:37.831Z,18.57
2022-09-24T09:21:14.840Z,18.62
2022-09-24T09:23:49.437Z,18.69
2022-09-24T09:26:23.226Z,18.71
2022-09-24T09:28:52.847Z,18.72
2022-09-24T09:31:30.034Z,18.73
2022-09-24T09:34:36.686Z,18.74
2022-09-24T09:37:11.545Z,18.75
2022-09-24T09:40:17.553Z,18.81
2022-09-24T09:42:45.412Z,18.87
2022-09-24T09:45:27.687Z,18.94
2022-09-24T09:47:56.891Z,19.02
2022-09-24T09:50:44.271Z,19.09
2022-09-24T09:53:32.098Z,19.17
2022-09-24T09:56:01.453Z,19.24
2022-09-24T09:58:32.561Z,19.30
2022-09-24T10:01:13.008Z,19.38
2022-09-24T10:03:39.773Z,19.42
2022-09-24T10:06:06.826Z,19.47
2022-09-24T10:08:33.552Z,19.52
2022-09-24T10:11:01.833Z,19.55
2022-09-24T10:13:28.869Z,19.56
2022-09-24T10:15:57.873Z,19.60
2022-09-24T10:18:46.911Z,19.70
2022-09-24T10:21:15.646Z,19.75
2022-09-24T10:23:44.697Z,19.79
2022-09-24T10:26:11.400Z,19.80
2022-09-24T10:29:00.449Z,19.87
2022-09-24T10:31:30.738Z,19.93
2022-09-24T10:33:59.118Z,19.98
2022-09-24T10:36:30.131Z,20.02
2022-09-24T10:39:13.301Z,20.06
2022-09-24T10:41:50.529Z,20.05
2022-09-24T10:44:17.903Z,20.05
2022-09-24T10:46:51.494Z,20.07
2022-09-24T10:49:46.196Z,20.07
2022-09-24T10:52:40.388Z,20.09
2022-09-24T10:55:29.604Z,20.10
2022-09-24T10:58:02.908Z,20.10
2022-09-24T11:00:39.247Z,20.13
2022-09-24T11:03:20.784Z,20.19
2022-09-24T11:06:02.905Z,20.25
2022-09-24T11:08:49.509Z,20.30
2022-09-24T11:11:55.349Z,20.35
2022-09-24T11:14:36.118Z,20.34
2022-09-24T11:17:26.396Z,20.34
2022-09-24T11:20:27.028Z,20.35
2022-09-24T11:23:17.217Z,20.36
2022-09-24T11:25:50.788Z,20.35
2022-09-24T11:28:43.356Z,20.35
2022-09-24T11:31:47.393Z,20.36
2022-09-24T11:34:37.696Z,20.35
2022-09-24T11:37:16.974Z,20.33
2022-09-24T11:39:52.598Z,20.33
2022-09-24T11:42:28.907Z,20.33
2022-09-24T11:45:21.546Z,20.35
2022-09-24T11:48:17.091Z,20.35
2022-09-24T11:50:51.212Z,20.33
2022-09-24T11:53:38.738Z,20.34
2022-09-24T11:56:19.039Z,20.36
2022-09-24T11:58:58.913Z,20.37
2022-09-24T12:01:33.864Z,20.39
2022-09-24T12:04:06.220Z,20.41
2022-09-24T12:06:37.005Z,20.41
2022-09-24T12:09:41.039Z,20.41
2022-09-24T12:12:12.649Z,20.41
2022-09-24T12:14:51.664Z,20.38
2022-09-24T12:17:22.260Z,20.36
2022-09-24T12:19:53.903Z,20.36
2022-09-24T12:22:21.743Z,20.37
2022-09-24T12:24:52.079Z,20.34
2022-09-24T12:27:23.042Z,20.32
2022-09-24T12:30:13.333Z,20.32
2022-09-24T12:33:12.404Z,20.32
2022-09-24T12:35:58.944Z,20.33
2022-09-24T12:38:34.157Z,20.34
2022-09-24T12:41:26.789Z,20.33
2022-09-24T12:44:11.807Z,20.32
2022-09-24T12:46:51.884Z,20.32
2022-09-24T12:49:24.725Z,20.32
2022-09-24T12:51:52.811Z,20.32
2022-09-24T12:54:38.255Z,20.33
2022-09-24T12:57:24.282Z,20.34
2022-09-24T12:59:56.239Z,20.35
2022-09-24T13:02:33.017Z,20.34
2022-09-24T13:05:05.028Z,20.35
2022-09-24T13:07:33.049Z,20.34
2022-09-24T13:10:17.990Z,20.35
2022-09-24T13:12:46.121Z,20.33
2022-09-24T13:15:38.549Z,20.30
2022-09-24T13:18:11.360Z,20.31
2022-09-24T13:20:40.035Z,20.34
2022-09-24T13:23:19.517Z,20.36
2022-09-24T13:26:04.814Z,20.37
2022-09-24T13:28:48.499Z,20.36
2022-09-24T13:31:21.604Z,20.36
2022-09-24T13:33:51.732Z,20.37
2022-09-24T13:36:21.748Z,20.38
2022-09-24T13:38:55.613Z,20.38
2022-09-24T13:41:27.654Z,20.36
2022-09-24T13:44:04.834Z,20.35
2022-09-24T13:46:32.203Z,20.34
2022-09-24T13:49:06.292Z,20.30
2022-09-24T13:51:36.658Z,20.26
2022-09-24T13:54:11.670Z,20.24
2022-09-24T13:56:38.662Z,20.21
2022-09-24T13:59:10.960Z,20.19
2022-09-24T14:01:41.261Z,20.16
2022-09-24T14:04:16.442Z,20.14
2022-09-24T14:06:51.841Z,20.14
2022-09-24T14:09:27.219Z,20.10
2022-09-24T14:11:58.804Z,20.08
2022-09-24T14:14:28.049Z,20.08
2022-09-24T14:17:06.064Z,20.05
2022-09-24T14:19:34.522Z,20.05
2022-09-24T14:22:03.286Z,20.03
2022-09-24T14:24:36.170Z,19.99
2022-09-24T14:27:08.429Z,19.95
2022-09-24T14:29:47.848Z,19.94
2022-09-24T14:32:24.744Z,19.91
2022-09-24T14:34:53.149Z,19.87
2022-09-24T14:37:23.026Z,19.87
2022-09-24T14:39:51.965Z,19.85
2022-09-24T14:42:24.085Z,19.85
2022-09-24T14:44:51.274Z,19.84
2022-09-24T14:47:26.618Z,19.82
2022-09-24T14:49:53.944Z,19.80
2022-09-24T14:52:31.011Z,19.77
2022-09-24T14:55:03.969Z,19.75
2022-09-24T14:57:37.403Z,19.73
2022-09-24T15:00:19.300Z,19.72
2022-09-24T15:02:55.062Z,19.67
2022-09-24T15:05:26.664Z,19.64
2022-09-24T15:08:11.625Z,19.59
2022-09-24T15:10:39.836Z,19.56
2022-09-24T15:13:14.566Z,19.52
2022-09-24T15:15:41.364Z,19.48
2022-09-24T15:18:10.823Z,19.47
2022-09-24T15:20:38.048Z,19.43
2022-09-24T15:23:04.841Z,19.40
2022-09-24T15:25:31.559Z,19.39
2022-09-24T15:27:59.245Z,19.36
2022-09-24T15:30:25.961Z,19.36
2022-09-24T15:32:52.703Z,19.32
2022-09-24T15:35:19.466Z,19.30
2022-09-24T15:37:46.718Z,19.27
2022-09-24T15:40:23.177Z,19.24
2022-09-24T15:42:50.349Z,19.20
2022-09-24T15:45:19.315Z,19.19
2022-09-24T15:47:46.022Z,19.16
2022-09-24T15:50:12.808Z,19.12
2022-09-24T15:52:49.077Z,19.11
2022-09-24T15:55:18.441Z,19.08
2022-09-24T15:57:46.214Z,19.07
2022-09-24T16:00:18.429Z,19.04
2022-09-24T16:02:49.870Z,19.02
2022-09-24T16:05:16.889Z,18.98
2022-09-24T16:07:43.624Z,18.97
2022-09-24T16:10:11.807Z,18.93
2022-09-24T16:12:39.502Z,18.89
2022-09-24T16:15:06.763Z,18.85
2022-09-24T16:17:33.751Z,18.83
2022-09-24T16:20:00.566Z,18.79
2022-09-24T16:22:27.284Z,18.77
2022-09-24T16:24:54.246Z,18.74
2022-09-24T16:27:20.947Z,18.72
2022-09-24T16:29:47.696Z,18.68
2022-09-24T16:32:14.447Z,18.67
2022-09-24T16:34:41.177Z,18.64
2022-09-24T16:37:08.454Z,18.62
2022-09-24T16:39:35.150Z,18.59
2022-09-24T16:42:01.911Z,18.55
2022-09-24T16:44:28.601Z,18.53
2022-09-24T16:46:55.387Z,18.51
2022-09-24T16:49:23.121Z,18.50
2022-09-24T16:51:49.800Z,18.48
2022-09-24T16:54:16.501Z,18.46
2022-09-24T16:56:43.222Z,18.45
2022-09-24T16:59:10.705Z,18.44
2022-09-24T17:01:39.287Z,18.43
2022-09-24T17:04:06.335Z,18.42
2022-09-24T17:06:34.000Z,18.40
2022-09-24T17:09:19.351Z,18.39
2022-09-24T17:11:47.477Z,18.35
2022-09-24T17:14:15.402Z,18.34
2022-09-24T17:16:42.775Z,18.34
2022-09-24T17:19:10.355Z,18.32
2022-09-24T17:21:38.898Z,18.32
2022-09-24T17:24:06.141Z,18.30
2022-09-24T17:26:32.937Z,18.31
2022-09-24T17:28:59.636Z,18.29
2022-09-24T17:31:26.504Z,18.28
2022-09-24T17:33:57.716Z,18.27
2022-09-24T17:36:26.234Z,18.27
2022-09-24T17:38:52.964Z,18.26
2022-09-24T17:41:20.585Z,18.25
2022-09-24T17:43:48.031Z,18.24
2022-09-24T17:46:17.116Z,18.23
2022-09-24T17:48:46.354Z,18.22
2022-09-24T17:51:16.685Z,18.21
2022-09-24T17:53:43.419Z,18.21
2022-09-24T17:56:11.692Z,18.19
2022-09-24T17:58:40.336Z,18.17
2022-09-24T18:01:11.227Z,18.17
2022-09-24T18:03:38.336Z,18.18
2022-09-24T18:06:10.354Z,18.17
2022-09-24T18:08:41.569Z,18.15
2022-09-24T18:11:10.533Z,18.13
2022-09-24T18:13:37.251Z,18.12
2022-09-24T18:16:12.040Z,18.11
2022-09-24T18:18:39.377Z,18.12
2022-09-24T18:21:08.658Z,18.12
2022-09-24T18:23:35.709Z,18.12
2022-09-24T18:26:14.224Z,18.11
2022-09-24T18:28:42.271Z,18.10
2022-09-24T18:31:10.273Z,18.11
2022-09-24T18:33:38.778Z,18.10
2022-09-24T18:36:08.132Z,18.09
2022-09-24T18:38:35.268Z,18.08
2022-09-24T18:41:07.871Z,18.09
2022-09-24T18:43:34.568Z,18.07
2022-09-24T18:46:05.727Z,18.07
2022-09-24T18:48:32.964Z,18.06
2022-09-24T18:50:59.860Z,18.06
2022-09-24T18:53:27.241Z,18.06
2022-09-24T18:55:53.962Z,18.07
2022-09-24T18:58:20.737Z,18.06
2022-09-24T19:00:50.825Z,18.06
2022-09-24T19:03:18.382Z,18.07
2022-09-24T19:05:47.465Z,18.07
2022-09-24T19:08:14.972Z,18.07
2022-09-24T19:10:41.847Z,18.06
2022-09-24T19:13:08.704Z,18.06
2022-09-24T19:15:39.399Z,18.07
2022-09-24T19:18:08.201Z,18.07
2022-09-24T19:20:38.764Z,18.07
2022-09-24T19:23:05.598Z,18.07
2022-09-24T19:25:33.516Z,18.06
2022-09-24T19:28:00.257Z,18.06
2022-09-24T19:30:27.631Z,18.06
2022-09-24T19:32:54.319Z,18.06
2022-09-24T19:35:21.082Z,18.05
2022-09-24T19:37:47.764Z,18.04
2022-09-24T19:40:14.530Z,18.04
2022-09-24T19:42:42.214Z,18.04
2022-09-24T19:45:09.205Z,18.03
2022-09-24T19:47:35.937Z,18.02
2022-09-24T19:50:02.626Z,18.02
2022-09-24T19:52:29.537Z,18.01
2022-09-24T19:54:56.257Z,17.99
2022-09-24T19:57:22.998Z,18.00
2022-09-24T19:59:49.681Z,17.99
2022-09-24T20:02:16.517Z,17.99
2022-09-24T20:04:43.416Z,17.98
2022-09-24T20:07:10.097Z,17.98
2022-09-24T20:09:36.899Z,17.97
2022-09-24T20:12:04.446Z,17.97
2022-09-24T20:14:33.693Z,17.96
2022-09-24T20:17:00.674Z,17.96
2022-09-24T20:19:27.353Z,17.95
2022-09-24T20:21:57.299Z,17.95
2022-09-24T20:24:24.013Z,17.96
2022-09-24T20:27:09.447Z,17.94
2022-09-24T20:29:37.385Z,17.94
2022-09-24T20:32:04.196Z,17.93
2022-09-24T20:34:33.524Z,17.92
2022-09-24T20:37:01.543Z,17.92
2022-09-24T20:39:29.266Z,17.90
2022-09-24T20:41:56.034Z,17.90
2022-09-24T20:44:24.777Z,17.90
2022-09-24T20:46:51.767Z,17.90
2022-09-24T20:49:22.475Z,17.91
2022-09-24T20:51:56.336Z,17.89
2022-09-24T20:54:23.650Z,17.90
2022-09-24T20:56:50.734Z,17.89
2022-09-24T20:59:17.420Z,17.89
2022-09-24T21:01:45.649Z,17.89
2022-09-24T21:04:12.511Z,17.89
2022-09-24T21:06:39.304Z,17.89
2022-09-24T21:09:06.001Z,17.88
2022-09-24T21:11:33.589Z,17.87
2022-09-24T21:14:01.153Z,17.88
2022-09-24T21:16:31.243Z,17.89
2022-09-24T21:18:58.774Z,17.89
2022-09-24T21:21:28.748Z,17.89
2022-09-24T21:23:57.542Z,17.89
2022-09-24T21:26:28.375Z,17.89
2022-09-24T21:28:58.066Z,17.90
2022-09-24T21:31:27.378Z,17.89
2022-09-24T21:33:54.095Z,17.89
2022-09-24T21:36:26.199Z,17.88
2022-09-24T21:38:54.525Z,17.89
2022-09-24T21:41:31.861Z,17.89
2022-09-24T21:43:58.909Z,17.87
2022-09-24T21:46:27.049Z,17.87
2022-09-24T21:48:55.091Z,17.85
2022-09-24T21:51:22.685Z,17.83
2022-09-24T21:53:53.897Z,17.81
2022-09-24T21:56:21.378Z,17.79
2022-09-24T21:58:49.353Z,17.78
2022-09-24T22:01:22.794Z,17.77
2022-09-24T22:03:51.711Z,17.78
2022-09-24T22:06:18.429Z,17.76
2022-09-24T22:08:47.051Z,17.77
2022-09-24T22:11:14.917Z,17.77
2022-09-24T22:13:41.873Z,17.77
2022-09-24T22:16:13.136Z,17.78
2022-09-24T22:18:39.995Z,17.79
2022-09-24T22:21:12.147Z,17.78
2022-09-24T22:23:39.457Z,17.78
2022-09-24T22:26:07.312Z,17.79
2022-09-24T22:28:34.321Z,17.79
2022-09-24T22:31:05.878Z,17.79
2022-09-24T22:33:51.280Z,17.80
2022-09-24T22:36:18.494Z,17.80
2022-09-24T22:38:45.260Z,17.81
2022-09-24T22:41:12.198Z,17.80
2022-09-24T22:43:39.319Z,17.80
2022-09-24T22:46:08.748Z,17.81
2022-09-24T22:48:35.879Z,17.82
2022-09-24T22:51:03.787Z,17.81
2022-09-24T22:53:36.848Z,17.81
2022-09-24T22:56:10.653Z,17.81
2022-09-24T22:58:37.985Z,17.82
2022-09-24T23:01:07.496Z,17.82
2022-09-24T23:03:35.394Z,17.82
2022-09-24T23:06:02.681Z,17.82
2022-09-24T23:08:33.012Z,17.82
2022-09-24T23:11:07.616Z,17.83
2022-09-24T23:13:34.326Z,17.81
2022-09-24T23:16:08.569Z,17.83
2022-09-24T23:18:35.273Z,17.81
2022-09-24T23:21:05.048Z,17.83
2022-09-24T23:23:31.805Z,17.82
2022-09-24T23:26:16.965Z,17.82
2022-09-24T23:28:44.973Z,17.82
2022-09-24T23:31:13.465Z,17.82
2022-09-24T23:33:41.312Z,17.83
2022-09-24T23:36:09.606Z,17.82
2022-09-24T23:38:36.650Z,17.82
2022-09-24T23:41:04.062Z,17.82
2022-09-24T23:43:30.911Z,17.83
2022-09-24T23:45:57.801Z,17.82
2022-09-24T23:48:25.310Z,17.83
2022-09-24T23:50:52.207Z,17.83
2022-09-24T23:53:19.163Z,17.82
2022-09-24T23:55:47.879Z,17.80
2022-09-24T23:58:15.923Z,17.80
